createdAt,value
2023-05-22T00:02:19.499Z,80.66
2023-05-22T00:04:48.072Z,80.70
2023-05-22T00:07:15.834Z,81.20
2023-05-22T00:09:45.156Z,81.49
2023-05-22T00:12:13.010Z,81.68
2023-05-22T00:14:41.322Z,81.69
2023-05-22T00:17:10.199Z,81.76
2023-05-22T00:19:38.783Z,81.83
2023-05-22T00:22:06.664Z,81.91
2023-05-22T00:24:34.843Z,81.99
2023-05-22T00:27:04.032Z,82.46
2023-05-22T00:29:32.349Z,82.13
2023-05-22T00:32:00.250Z,80.42
2023-05-22T00:34:28.517Z,80.11
2023-05-22T00:36:56.344Z,80.62
2023-05-22T00:39:24.310Z,80.99
2023-05-22T00:41:52.065Z,81.38
2023-05-22T00:44:21.554Z,82.21
2023-05-22T00:46:49.400Z,81.41
2023-05-22T00:49:17.694Z,81.23
2023-05-22T00:51:45.750Z,81.67
2023-05-22T00:54:14.531Z,81.80
2023-05-22T00:56:43.013Z,81.35
2023-05-22T00:59:11.338Z,81.88
2023-05-22T01:01:42.892Z,81.84
2023-05-22T01:04:11.839Z,82.65
2023-05-22T01:06:41.642Z,82.57
2023-05-22T01:09:09.397Z,83.25
2023-05-22T01:11:44.717Z,82.90
2023-05-22T01:14:18.276Z,83.41
2023-05-22T01:16:54.954Z,83.67
2023-05-22T01:19:47.397Z,83.46
2023-05-22T01:22:31.680Z,83.80
2023-05-22T01:25:21.034Z,83.46
2023-05-22T01:28:04.157Z,83.35
2023-05-22T01:30:47.072Z,83.12
2023-05-22T01:33:18.044Z,83.04
2023-05-22T01:35:53.846Z,83.43
2023-05-22T01:38:22.788Z,82.96
2023-05-22T01:40:50.997Z,83.46
2023-05-22T01:43:19.568Z,83.27
2023-05-22T01:45:49.301Z,82.84
2023-05-22T01:48:17.334Z,82.69
2023-05-22T01:50:52.008Z,82.24
2023-05-22T01:53:25.196Z,81.83
2023-05-22T01:55:59.379Z,82.21
2023-05-22T01:58:35.188Z,82.23
2023-05-22T02:01:05.342Z,82.40
2023-05-22T02:03:36.014Z,82.74
2023-05-22T02:06:08.004Z,81.87
2023-05-22T02:08:38.828Z,83.34
2023-05-22T02:11:07.694Z,83.20
2023-05-22T02:13:36.087Z,83.50
2023-05-22T02:16:06.249Z,83.84
2023-05-22T02:18:34.106Z,83.93
2023-05-22T02:21:02.714Z,84.31
2023-05-22T02:23:33.529Z,83.77
2023-05-22T02:26:01.646Z,83.16
2023-05-22T02:28:29.556Z,82.93
2023-05-22T02:30:57.396Z,83.63
2023-05-22T02:33:26.940Z,83.93
2023-05-22T02:35:55.363Z,83.65
2023-05-22T02:38:24.693Z,82.95
2023-05-22T02:40:53.246Z,83.83
2023-05-22T02:43:21.983Z,83.68
2023-05-22T02:45:49.970Z,83.63
2023-05-22T02:48:18.520Z,84.04
2023-05-22T02:50:48.689Z,83.94
2023-05-22T02:53:17.421Z,84.13
2023-05-22T02:55:45.890Z,84.25
2023-05-22T02:58:15.026Z,84.52
2023-05-22T03:00:43.210Z,84.86
2023-05-22T03:03:11.784Z,85.01
2023-05-22T03:05:40.284Z,85.09
2023-05-22T03:08:10.127Z,85.88
2023-05-22T03:10:38.447Z,85.73
2023-05-22T03:13:06.330Z,85.83
2023-05-22T03:15:33.985Z,86.20
2023-05-22T03:18:10.849Z,86.08
2023-05-22T03:20:40.276Z,86.17
2023-05-22T03:23:08.471Z,85.93
2023-05-22T03:25:37.515Z,85.97
2023-05-22T03:28:05.840Z,86.08
2023-05-22T03:30:38.318Z,86.18
2023-05-22T03:33:15.705Z,86.20
2023-05-22T03:35:44.516Z,85.87
2023-05-22T03:38:12.817Z,86.02
2023-05-22T03:40:42.418Z,86.00
2023-05-22T03:43:11.269Z,86.03
2023-05-22T03:45:40.103Z,85.79
2023-05-22T03:48:08.105Z,86.04
2023-05-22T03:50:35.870Z,85.83
2023-05-22T03:53:03.550Z,86.03
2023-05-22T03:55:32.255Z,86.10
2023-05-22T03:58:01.285Z,85.62
2023-05-22T04:00:29.411Z,85.95
2023-05-22T04:02:58.699Z,86.38
2023-05-22T04:05:26.825Z,86.24
2023-05-22T04:07:54.895Z,86.50
2023-05-22T04:10:23.609Z,86.49
2023-05-22T04:12:52.094Z,86.61
2023-05-22T04:15:21.883Z,86.72
2023-05-22T04:17:50.023Z,86.12
2023-05-22T04:20:18.106Z,86.56
2023-05-22T04:22:46.702Z,85.88
2023-05-22T04:25:14.378Z,86.12
2023-05-22T04:27:42.454Z,86.34
2023-05-22T04:30:10.735Z,86.52
2023-05-22T04:32:41.598Z,87.12
2023-05-22T04:35:10.235Z,86.84
2023-05-22T04:37:40.755Z,86.28
2023-05-22T04:40:10.236Z,86.46
2023-05-22T04:42:38.402Z,86.19
2023-05-22T04:45:07.037Z,86.08
2023-05-22T04:47:35.119Z,86.34
2023-05-22T04:50:09.134Z,86.20
2023-05-22T04:52:37.818Z,85.53
2023-05-22T04:55:06.991Z,85.12
2023-05-22T04:57:34.848Z,84.61
2023-05-22T05:00:04.243Z,84.79
2023-05-22T05:02:33.773Z,84.36
2023-05-22T05:05:02.314Z,84.59
2023-05-22T05:07:31.373Z,84.73
2023-05-22T05:09:59.067Z,84.77
2023-05-22T05:12:28.188Z,84.56
2023-05-22T05:14:56.141Z,84.00
2023-05-22T05:17:24.120Z,83.86
2023-05-22T05:19:51.877Z,83.85
2023-05-22T05:22:19.684Z,83.67
2023-05-22T05:24:49.382Z,83.16
2023-05-22T05:27:17.833Z,83.32
2023-05-22T05:29:47.076Z,83.11
2023-05-22T05:32:24.520Z,82.20
2023-05-22T05:35:03.004Z,82.10
2023-05-22T05:37:44.741Z,82.41
2023-05-22T05:40:15.400Z,82.06
2023-05-22T05:42:48.750Z,81.36
2023-05-22T05:45:19.300Z,81.23
2023-05-22T05:47:47.381Z,80.55
2023-05-22T05:50:16.435Z,78.33
2023-05-22T05:52:44.497Z,76.51
2023-05-22T05:55:17.949Z,77.70
2023-05-22T05:57:45.723Z,76.68
2023-05-22T06:00:20.353Z,74.41
2023-05-22T06:02:50.734Z,72.66
2023-05-22T06:05:37.511Z,72.35
2023-05-22T06:08:28.441Z,72.12
2023-05-22T06:10:57.738Z,70.13
2023-05-22T06:13:38.723Z,69.36
2023-05-22T06:16:07.366Z,69.91
2023-05-22T06:18:35.882Z,70.11
2023-05-22T06:21:03.866Z,68.92
2023-05-22T06:23:32.360Z,68.02
2023-05-22T06:26:01.698Z,67.79
2023-05-22T06:28:29.918Z,68.35
2023-05-22T06:30:59.255Z,68.80
2023-05-22T06:33:28.942Z,68.04
2023-05-22T06:35:56.759Z,68.10
2023-05-22T06:38:24.582Z,68.19
2023-05-22T06:40:52.307Z,66.74
2023-05-22T06:43:25.818Z,66.94
2023-05-22T06:46:01.572Z,67.41
2023-05-22T06:48:51.161Z,67.17
2023-05-22T06:51:25.582Z,65.23
2023-05-22T06:53:59.810Z,63.38
2023-05-22T06:56:32.066Z,61.29
2023-05-22T06:59:12.696Z,59.16
2023-05-22T07:01:58.529Z,56.35
2023-05-22T07:04:43.583Z,54.33
2023-05-22T07:07:18.816Z,52.70
2023-05-22T07:09:46.915Z,51.76
2023-05-22T07:12:14.691Z,52.46
2023-05-22T07:14:43.862Z,51.58
2023-05-22T07:17:11.693Z,50.92
2023-05-22T07:19:43.816Z,50.19
2023-05-22T07:22:12.002Z,52.70
2023-05-22T07:24:40.774Z,49.76
2023-05-22T07:27:11.337Z,48.85
2023-05-22T07:29:39.827Z,49.33
2023-05-22T07:32:10.980Z,50.52
2023-05-22T07:34:38.938Z,51.00
2023-05-22T07:37:09.996Z,50.72
2023-05-22T07:39:37.982Z,51.59
2023-05-22T07:42:07.958Z,50.75
2023-05-22T07:44:42.255Z,51.58
2023-05-22T07:47:11.361Z,51.57
2023-05-22T07:49:40.185Z,50.92
2023-05-22T07:52:08.367Z,52.63
2023-05-22T07:54:36.425Z,49.69
2023-05-22T07:57:08.127Z,46.98
2023-05-22T07:59:39.953Z,48.40
2023-05-22T08:02:08.329Z,47.12
2023-05-22T08:04:37.762Z,45.36
2023-05-22T08:07:06.008Z,46.30
2023-05-22T08:09:33.825Z,48.17
2023-05-22T08:12:01.830Z,45.28
2023-05-22T08:14:29.698Z,47.96
2023-05-22T08:16:59.237Z,48.53
2023-05-22T08:19:27.123Z,49.16
2023-05-22T08:21:58.512Z,47.78
2023-05-22T08:24:28.400Z,48.81
2023-05-22T08:26:58.526Z,48.88
2023-05-22T08:29:26.516Z,50.53
2023-05-22T08:31:56.732Z,49.80
2023-05-22T08:34:25.119Z,50.51
2023-05-22T08:36:52.816Z,49.22
2023-05-22T08:39:22.250Z,49.36
2023-05-22T08:41:50.345Z,49.24
2023-05-22T08:44:19.656Z,48.58
2023-05-22T08:46:49.698Z,49.61
2023-05-22T08:49:25.306Z,45.75
2023-05-22T08:51:57.369Z,46.83
2023-05-22T08:54:27.912Z,48.82
2023-05-22T08:56:57.466Z,48.16
2023-05-22T08:59:25.745Z,46.03
2023-05-22T09:01:54.467Z,48.87
2023-05-22T09:04:24.069Z,45.54
2023-05-22T09:06:52.417Z,45.75
2023-05-22T09:09:20.211Z,44.63
2023-05-22T09:11:49.209Z,43.69
2023-05-22T09:14:17.011Z,45.93
2023-05-22T09:16:46.626Z,44.56
2023-05-22T09:19:15.073Z,46.78
2023-05-22T09:21:44.238Z,44.77
2023-05-22T09:24:12.846Z,44.71
2023-05-22T09:26:41.476Z,45.36
2023-05-22T09:29:11.028Z,46.14
2023-05-22T09:31:45.218Z,46.35
2023-05-22T09:34:15.655Z,46.28
2023-05-22T09:36:43.630Z,45.77
2023-05-22T09:39:11.700Z,46.98
2023-05-22T09:41:41.071Z,47.15
2023-05-22T09:44:15.344Z,46.32
2023-05-22T09:46:45.329Z,46.87
2023-05-22T09:49:16.138Z,47.16
2023-05-22T09:51:47.869Z,46.45
2023-05-22T09:54:17.767Z,46.01
2023-05-22T09:56:48.182Z,46.32
2023-05-22T09:59:22.073Z,47.27
2023-05-22T10:01:51.331Z,46.38
2023-05-22T10:04:19.803Z,47.39
2023-05-22T10:06:51.861Z,46.53
2023-05-22T10:09:22.762Z,47.51
2023-05-22T10:11:54.627Z,47.67
2023-05-22T10:14:25.767Z,48.02
2023-05-22T10:16:56.752Z,47.75
2023-05-22T10:19:28.396Z,47.25
2023-05-22T10:21:57.775Z,48.20
2023-05-22T10:24:26.378Z,49.40
2023-05-22T10:26:54.975Z,48.59
2023-05-22T10:29:32.140Z,48.63
2023-05-22T10:32:10.364Z,51.03
2023-05-22T10:34:55.208Z,51.47
2023-05-22T10:37:37.291Z,50.36
2023-05-22T10:40:09.872Z,50.10
2023-05-22T10:42:38.904Z,53.23
2023-05-22T10:45:12.062Z,54.23
2023-05-22T10:47:41.228Z,53.13
2023-05-22T10:50:10.969Z,53.62
2023-05-22T10:52:39.922Z,51.58
2023-05-22T10:55:09.236Z,51.59
2023-05-22T10:57:38.971Z,51.62
2023-05-22T11:00:13.814Z,50.58
2023-05-22T11:02:44.477Z,51.56
2023-05-22T11:05:37.467Z,52.68
2023-05-22T11:08:39.403Z,53.75
2023-05-22T11:11:16.286Z,52.28
2023-05-22T11:13:44.089Z,53.37
2023-05-22T11:16:13.694Z,50.46
2023-05-22T11:18:41.777Z,48.61
2023-05-22T11:21:13.652Z,47.06
2023-05-22T11:23:42.567Z,50.73
2023-05-22T11:26:22.235Z,49.02
2023-05-22T11:28:51.949Z,49.07
2023-05-22T11:31:23.061Z,48.98
2023-05-22T11:33:50.984Z,49.43
2023-05-22T11:36:19.448Z,47.81
2023-05-22T11:38:47.532Z,49.85
2023-05-22T11:41:17.096Z,48.73
2023-05-22T11:43:45.530Z,50.06
2023-05-22T11:46:14.117Z,49.21
2023-05-22T11:48:44.003Z,47.57
2023-05-22T11:51:12.125Z,47.04
2023-05-22T11:53:42.339Z,46.57
2023-05-22T11:56:10.474Z,45.81
2023-05-22T11:58:38.257Z,45.22
2023-05-22T12:01:07.280Z,46.69
2023-05-22T12:03:35.714Z,45.90
2023-05-22T12:06:06.179Z,45.70
2023-05-22T12:08:34.041Z,44.76
2023-05-22T12:11:05.615Z,43.39
2023-05-22T12:13:33.578Z,45.53
2023-05-22T12:16:01.808Z,44.80
2023-05-22T12:18:37.109Z,44.65
2023-05-22T12:21:08.844Z,44.56
2023-05-22T12:23:36.599Z,44.29
2023-05-22T12:26:10.066Z,43.75
2023-05-22T12:28:39.606Z,42.19
2023-05-22T12:31:07.564Z,42.23
2023-05-22T12:33:35.379Z,44.02
2023-05-22T12:36:10.402Z,43.17
2023-05-22T12:38:39.483Z,43.69
2023-05-22T12:41:07.868Z,40.57
2023-05-22T12:43:35.610Z,42.05
2023-05-22T12:46:03.358Z,40.01
2023-05-22T12:48:31.216Z,41.46
2023-05-22T12:50:59.182Z,40.83
2023-05-22T12:53:28.220Z,40.58
2023-05-22T12:55:56.359Z,40.43
2023-05-22T12:58:24.120Z,39.99
2023-05-22T13:00:51.996Z,40.59
2023-05-22T13:03:19.717Z,40.17
2023-05-22T13:05:47.603Z,39.83
2023-05-22T13:08:15.378Z,41.98
2023-05-22T13:10:44.702Z,40.37
2023-05-22T13:13:12.450Z,39.87
2023-05-22T13:15:40.645Z,39.28
2023-05-22T13:18:08.667Z,38.40
2023-05-22T13:20:37.533Z,39.79
2023-05-22T13:23:05.745Z,39.89
2023-05-22T13:25:33.734Z,38.34
2023-05-22T13:28:03.540Z,39.70
2023-05-22T13:30:32.302Z,38.47
2023-05-22T13:33:00.117Z,36.05
2023-05-22T13:35:28.376Z,37.81
2023-05-22T13:37:56.100Z,39.02
2023-05-22T13:40:24.288Z,39.09
2023-05-22T13:42:52.670Z,37.34
2023-05-22T13:45:22.104Z,36.23
2023-05-22T13:47:50.620Z,37.77
2023-05-22T13:50:18.525Z,38.35
2023-05-22T13:52:46.445Z,36.51
2023-05-22T13:55:14.571Z,36.03
2023-05-22T13:57:42.331Z,35.52
2023-05-22T14:00:10.994Z,35.05
2023-05-22T14:02:40.431Z,35.36
2023-05-22T14:05:09.330Z,38.15
2023-05-22T14:07:37.192Z,37.14
2023-05-22T14:10:05.351Z,37.24
2023-05-22T14:12:33.169Z,40.20
2023-05-22T14:15:01.050Z,40.36
2023-05-22T14:17:30.079Z,38.21
2023-05-22T14:19:59.748Z,37.68
2023-05-22T14:22:27.476Z,38.55
2023-05-22T14:24:55.132Z,37.22
2023-05-22T14:27:23.068Z,35.07
2023-05-22T14:29:50.755Z,37.45
2023-05-22T14:32:18.541Z,37.67
2023-05-22T14:34:46.277Z,38.12
2023-05-22T14:37:15.627Z,38.32
2023-05-22T14:39:43.339Z,39.52
2023-05-22T14:42:11.293Z,39.36
2023-05-22T14:44:38.930Z,39.04
2023-05-22T14:47:07.069Z,41.80
2023-05-22T14:49:34.739Z,40.86
2023-05-22T14:52:02.875Z,41.77
2023-05-22T14:54:31.910Z,44.36
2023-05-22T14:56:59.970Z,46.12
2023-05-22T14:59:27.581Z,44.13
2023-05-22T15:01:55.516Z,44.80
2023-05-22T15:04:24.683Z,45.75
2023-05-22T15:06:52.637Z,48.53
2023-05-22T15:09:20.326Z,49.06
2023-05-22T15:11:51.234Z,52.62
2023-05-22T15:14:19.117Z,51.67
2023-05-22T15:16:47.340Z,53.79
2023-05-22T15:19:15.162Z,55.43
2023-05-22T15:21:43.502Z,54.40
2023-05-22T15:24:11.454Z,56.90
2023-05-22T15:26:39.140Z,63.58
2023-05-22T15:29:08.106Z,67.07
2023-05-22T15:31:36.143Z,74.08
2023-05-22T15:34:04.484Z,73.92
2023-05-22T15:36:33.245Z,80.97
2023-05-22T15:39:00.948Z,84.67
2023-05-22T15:41:28.646Z,86.05
2023-05-22T15:43:56.757Z,86.50
2023-05-22T15:46:25.793Z,88.59
2023-05-22T15:48:53.512Z,87.33
2023-05-22T15:51:21.177Z,88.08
2023-05-22T15:53:50.949Z,88.92
2023-05-22T15:56:18.609Z,89.79
2023-05-22T15:58:46.322Z,90.63
2023-05-22T16:01:13.978Z,90.80
2023-05-22T16:03:43.568Z,90.36
2023-05-22T16:06:11.297Z,90.43
2023-05-22T16:08:39.130Z,90.54
2023-05-22T16:11:06.990Z,91.08
2023-05-22T16:13:34.849Z,90.79
2023-05-22T16:16:03.254Z,90.53
2023-05-22T16:18:31.384Z,90.52
2023-05-22T16:21:00.386Z,89.62
2023-05-22T16:23:28.410Z,89.78
2023-05-22T16:25:56.111Z,90.12
2023-05-22T16:28:24.087Z,89.91
2023-05-22T16:30:51.738Z,90.22
2023-05-22T16:33:19.431Z,90.20
2023-05-22T16:35:47.190Z,89.83
2023-05-22T16:38:16.668Z,89.93
2023-05-22T16:40:44.348Z,90.12
2023-05-22T16:43:14.359Z,90.34
2023-05-22T16:45:46.415Z,90.89
2023-05-22T16:48:14.699Z,90.77
2023-05-22T16:50:43.685Z,91.10
2023-05-22T16:53:11.721Z,90.46
2023-05-22T16:55:40.965Z,90.88
2023-05-22T16:58:11.426Z,90.98
2023-05-22T17:00:40.509Z,91.26
2023-05-22T17:03:10.167Z,91.33
2023-05-22T17:05:38.779Z,91.27
2023-05-22T17:08:06.846Z,91.21
2023-05-22T17:10:34.732Z,91.49
2023-05-22T17:13:03.680Z,91.94
2023-05-22T17:15:32.353Z,92.07
2023-05-22T17:18:00.203Z,92.16
2023-05-22T17:20:29.599Z,91.82
2023-05-22T17:22:57.292Z,92.45
2023-05-22T17:25:25.856Z,92.57
2023-05-22T17:27:53.507Z,92.58
2023-05-22T17:30:23.087Z,92.46
2023-05-22T17:32:53.287Z,92.58
2023-05-22T17:35:21.766Z,92.57
2023-05-22T17:37:49.595Z,92.56
2023-05-22T17:40:18.216Z,92.85
2023-05-22T17:42:46.280Z,93.03
2023-05-22T17:45:14.326Z,92.90
2023-05-22T17:47:43.436Z,93.04
2023-05-22T17:50:12.636Z,92.77
2023-05-22T17:52:40.922Z,93.01
2023-05-22T17:55:09.967Z,93.08
2023-05-22T17:57:37.650Z,93.07
2023-05-22T18:00:09.777Z,92.98
2023-05-22T18:02:40.278Z,92.74
2023-05-22T18:05:11.113Z,92.94
2023-05-22T18:07:38.740Z,92.88
2023-05-22T18:10:07.993Z,93.14
2023-05-22T18:12:38.169Z,93.08
2023-05-22T18:15:08.621Z,93.42
2023-05-22T18:17:36.506Z,93.31
2023-05-22T18:20:06.386Z,93.32
2023-05-22T18:22:35.740Z,93.50
2023-05-22T18:25:03.688Z,93.52
2023-05-22T18:27:32.078Z,93.61
2023-05-22T18:29:59.820Z,93.58
2023-05-22T18:32:27.477Z,93.58
2023-05-22T18:34:55.428Z,93.67
2023-05-22T18:37:23.258Z,93.64
2023-05-22T18:39:52.497Z,93.76
2023-05-22T18:42:20.331Z,93.45
2023-05-22T18:44:49.177Z,93.46
2023-05-22T18:47:17.059Z,93.57
2023-05-22T18:49:45.423Z,93.60
2023-05-22T18:52:13.627Z,93.90
2023-05-22T18:54:41.361Z,93.97
2023-05-22T18:57:10.696Z,93.94
2023-05-22T18:59:38.538Z,93.75
2023-05-22T19:02:06.898Z,93.92
2023-05-22T19:04:34.659Z,93.90
2023-05-22T19:07:02.545Z,94.35
2023-05-22T19:09:30.226Z,93.97
2023-05-22T19:11:58.077Z,94.01
2023-05-22T19:14:27.049Z,94.11
2023-05-22T19:16:55.078Z,94.54
2023-05-22T19:19:22.847Z,94.25
2023-05-22T19:21:50.696Z,93.97
2023-05-22T19:24:18.328Z,94.38
2023-05-22T19:26:46.249Z,94.55
2023-05-22T19:29:13.924Z,94.34
2023-05-22T19:31:43.042Z,94.38
2023-05-22T19:34:10.832Z,94.18
2023-05-22T19:36:38.671Z,94.57
2023-05-22T19:39:06.345Z,94.32
2023-05-22T19:41:34.298Z,94.54
2023-05-22T19:44:01.990Z,94.05
2023-05-22T19:46:29.809Z,94.55
2023-05-22T19:48:59.076Z,93.75
2023-05-22T19:51:28.097Z,94.26
2023-05-22T19:53:55.754Z,94.03
2023-05-22T19:56:23.419Z,94.55
2023-05-22T19:58:51.100Z,94.21
2023-05-22T20:01:18.764Z,94.49
2023-05-22T20:03:46.685Z,94.31
2023-05-22T20:06:16.350Z,94.68
2023-05-22T20:08:44.238Z,94.27
2023-05-22T20:11:11.892Z,94.67
2023-05-22T20:13:39.596Z,94.51
2023-05-22T20:16:12.117Z,94.70
2023-05-22T20:18:40.925Z,95.02
2023-05-22T20:21:08.841Z,94.42
2023-05-22T20:23:40.047Z,94.98
2023-05-22T20:26:07.721Z,95.04
2023-05-22T20:28:35.492Z,94.85
2023-05-22T20:31:04.127Z,94.85
2023-05-22T20:33:31.975Z,94.95
2023-05-22T20:36:01.105Z,94.58
2023-05-22T20:38:29.923Z,95.03
2023-05-22T20:40:59.618Z,94.93
2023-05-22T20:43:30.294Z,95.22
2023-05-22T20:45:58.338Z,94.74
2023-05-22T20:48:26.098Z,95.05
2023-05-22T20:50:53.912Z,95.12
2023-05-22T20:53:21.840Z,95.27
2023-05-22T20:55:49.466Z,95.01
2023-05-22T20:58:19.802Z,94.62
2023-05-22T21:00:49.300Z,95.18
2023-05-22T21:03:17.930Z,94.87
2023-05-22T21:05:45.608Z,95.34
2023-05-22T21:08:13.498Z,94.79
2023-05-22T21:10:41.394Z,94.93
2023-05-22T21:13:09.502Z,95.22
2023-05-22T21:15:38.692Z,95.32
2023-05-22T21:18:07.083Z,94.97
2023-05-22T21:20:34.862Z,95.34
2023-05-22T21:23:02.723Z,94.99
2023-05-22T21:25:30.623Z,94.99
2023-05-22T21:27:58.411Z,95.05
2023-05-22T21:30:26.173Z,94.88
2023-05-22T21:32:55.527Z,95.08
2023-05-22T21:35:23.417Z,95.41
2023-05-22T21:37:51.323Z,95.52
2023-05-22T21:40:19.157Z,95.17
2023-05-22T21:42:47.606Z,95.27
2023-05-22T21:45:15.507Z,94.92
2023-05-22T21:47:43.831Z,95.28
2023-05-22T21:50:13.030Z,95.24
2023-05-22T21:52:40.736Z,95.03
2023-05-22T21:55:09.269Z,94.94
2023-05-22T21:57:37.403Z,95.23
2023-05-22T22:00:05.512Z,94.98
2023-05-22T22:02:33.140Z,95.14
2023-05-22T22:05:01.239Z,95.58
2023-05-22T22:07:30.230Z,95.11
2023-05-22T22:09:59.501Z,95.54
2023-05-22T22:12:27.134Z,95.02
2023-05-22T22:14:55.136Z,95.43
2023-05-22T22:17:25.449Z,95.01
2023-05-22T22:19:57.224Z,94.99
2023-05-22T22:22:25.793Z,95.20
2023-05-22T22:24:54.924Z,95.45
2023-05-22T22:27:22.595Z,95.41
2023-05-22T22:29:50.692Z,95.18
2023-05-22T22:32:18.469Z,95.47
2023-05-22T22:34:46.462Z,95.40
2023-05-22T22:37:14.724Z,94.96
2023-05-22T22:39:42.692Z,95.24
2023-05-22T22:42:11.685Z,95.31
2023-05-22T22:44:39.723Z,95.37
2023-05-22T22:47:07.860Z,95.11
2023-05-22T22:49:37.373Z,95.32
2023-05-22T22:52:05.384Z,95.39
2023-05-22T22:54:33.464Z,95.18
2023-05-22T22:57:01.170Z,95.57
2023-05-22T22:59:30.484Z,95.63
2023-05-22T23:01:58.204Z,95.58
2023-05-22T23:04:28.335Z,95.56
2023-05-22T23:06:57.515Z,95.25
2023-05-22T23:09:25.660Z,95.56
2023-05-22T23:11:53.292Z,95.25
2023-05-22T23:14:21.223Z,95.69
2023-05-22T23:16:50.178Z,95.60
2023-05-22T23:19:18.319Z,95.77
2023-05-22T23:21:46.027Z,95.22
2023-05-22T23:24:14.301Z,95.82
2023-05-22T23:26:41.911Z,95.76
2023-05-22T23:29:09.560Z,95.34
2023-05-22T23:31:37.538Z,95.42
2023-05-22T23:34:06.671Z,95.38
2023-05-22T23:36:34.969Z,95.68
2023-05-22T23:39:02.633Z,95.83
2023-05-22T23:41:31.117Z,95.60
2023-05-22T23:43:58.764Z,95.57
2023-05-22T23:46:26.937Z,95.46
2023-05-22T23:48:54.582Z,95.72
2023-05-22T23:51:23.783Z,95.46
2023-05-22T23:53:51.484Z,95.48
2023-05-22T23:56:19.526Z,95.52
2023-05-22T23:58:47.142Z,95.76
